Time;durP1;ratioP1;P1;durP2;ratioP2;P2;SDS_P1;SDS_P2;PMS_P1;PMS_P2;Temp;Humidity;BMP_temperature;BMP_pressure;BME280_temperature;BME280_humidity;BME280_pressure;Samples;Min_cycle;Max_cycle;Signal;HPM_P1;HPM_P2
2023/02/08 00:01:54;;;;;;;30.80;20.08;;;-1.20;99.90;;;;;;4899701;29;20127;-80
2023/02/08 00:04:21;;;;;;;38.13;19.88;;;-1.20;99.90;;;;;;4899891;29;20036;-79
2023/02/08 00:06:47;;;;;;;34.47;18.92;;;-1.30;99.90;;;;;;4916162;29;20057;-80
2023/02/08 00:09:14;;;;;;;30.08;17.25;;;-1.30;99.90;;;;;;4900522;29;20102;-80
2023/02/08 00:11:41;;;;;;;34.63;19.30;;;-1.30;99.90;;;;;;4879083;29;20056;-80
2023/02/08 00:14:07;;;;;;;35.17;17.35;;;-1.40;99.90;;;;;;4882177;29;20060;-81
2023/02/08 00:16:35;;;;;;;40.90;20.98;;;-1.40;99.90;;;;;;4882154;29;20136;-80
2023/02/08 00:19:01;;;;;;;28.58;17.88;;;-1.40;99.90;;;;;;4896176;29;20064;-81
2023/02/08 00:21:28;;;;;;;35.55;20.63;;;-1.50;99.90;;;;;;4879820;29;20067;-81
2023/02/08 00:23:55;;;;;;;37.65;20.27;;;-1.50;99.90;;;;;;4896469;29;20152;-81
2023/02/08 00:26:22;;;;;;;35.53;19.63;;;-1.40;99.90;;;;;;4881843;29;20503;-79
2023/02/08 00:28:49;;;;;;;37.63;18.88;;;-1.50;99.90;;;;;;4895422;29;20041;-79
2023/02/08 00:31:16;;;;;;;31.35;19.75;;;-1.50;99.90;;;;;;4880681;29;20053;-82
2023/02/08 00:33:43;;;;;;;35.95;19.10;;;-1.60;99.90;;;;;;4896417;29;20456;-81
2023/02/08 00:36:10;;;;;;;33.40;17.35;;;-1.60;99.90;;;;;;4895220;29;20496;-80
2023/02/08 00:38:40;;;;;;;27.55;16.42;;;-1.60;99.90;;;;;;4880292;29;20393;-81
2023/02/08 00:41:07;;;;;;;32.85;18.85;;;-1.60;99.90;;;;;;4879660;29;20532;-80
2023/02/08 00:43:33;;;;;;;30.67;18.40;;;-1.60;99.90;;;;;;4896109;29;20052;-80
2023/02/08 00:49:04;;;;;;;36.55;19.52;;;-1.70;99.90;;;;;;4895149;29;20051;-78
2023/02/08 00:51:31;;;;;;;27.27;17.45;;;-1.70;99.90;;;;;;4880274;29;20053;-80
2023/02/08 00:53:57;;;;;;;36.65;18.52;;;-1.70;99.90;;;;;;4880454;29;20044;-79
2023/02/08 00:56:25;;;;;;;32.80;19.38;;;-1.80;99.90;;;;;;4880220;29;20041;-80
2023/02/08 00:58:52;;;;;;;33.20;17.83;;;-1.80;99.90;;;;;;4880306;29;20464;-80
2023/02/08 01:01:18;;;;;;;28.13;16.80;;;-1.80;99.90;;;;;;4879677;29;20049;-79
2023/02/08 01:03:46;;;;;;;37.90;19.10;;;-1.80;99.90;;;;;;4895988;29;20088;-79
2023/02/08 01:08:43;;;;;;;29.58;17.67;;;-1.80;99.90;;;;;;4894709;29;20437;-81
2023/02/08 01:11:10;;;;;;;28.90;17.27;;;-1.80;99.90;;;;;;4895576;29;20494;-81
2023/02/08 01:13:37;;;;;;;34.13;18.80;;;-1.80;99.90;;;;;;4879935;29;20041;-79
2023/02/08 01:18:51;;;;;;;33.10;17.55;;;-1.90;99.90;;;;;;4883676;29;20049;-81
2023/02/08 01:21:18;;;;;;;27.50;16.33;;;-2.00;99.90;;;;;;4867625;29;20383;-81
2023/02/08 01:23:44;;;;;;;28.33;17.40;;;-2.00;99.90;;;;;;4868369;29;20045;-81
2023/02/08 01:26:11;;;;;;;29.45;17.92;;;-2.00;99.90;;;;;;4885807;29;20060;-81
2023/02/08 01:28:38;;;;;;;29.27;18.90;;;-2.10;99.90;;;;;;4867569;29;20056;-79
2023/02/08 01:31:05;;;;;;;32.35;18.23;;;-2.10;99.90;;;;;;4883607;29;20057;-80
2023/02/08 01:33:32;;;;;;;32.00;17.63;;;-2.00;99.90;;;;;;4883394;29;20064;-81
2023/02/08 01:36:01;;;;;;;31.77;18.33;;;-2.10;99.90;;;;;;4867298;29;20041;-80
2023/02/08 01:38:27;;;;;;;31.95;20.08;;;-2.00;99.90;;;;;;4883255;29;20124;-80
2023/02/08 01:40:54;;;;;;;29.65;17.98;;;-2.10;99.90;;;;;;4897978;29;20037;-78
2023/02/08 01:43:21;;;;;;;29.27;16.48;;;-2.10;99.90;;;;;;4883833;29;20051;-82
2023/02/08 01:48:18;;;;;;;30.48;18.50;;;-2.20;99.90;;;;;;4882482;29;20088;-81
2023/02/08 01:50:45;;;;;;;34.47;17.60;;;-2.20;99.90;;;;;;4883113;29;20044;-79
2023/02/08 01:53:11;;;;;;;32.80;18.33;;;-2.20;99.90;;;;;;4883918;29;20041;-79
2023/02/08 01:55:39;;;;;;;31.02;17.98;;;-2.30;99.90;;;;;;4882657;29;20037;-80
2023/02/08 01:58:06;;;;;;;31.38;17.75;;;-2.20;99.90;;;;;;4883359;29;20044;-79
2023/02/08 02:00:32;;;;;;;33.15;17.35;;;-2.20;99.90;;;;;;4882106;29;20053;-80
2023/02/08 02:03:00;;;;;;;30.88;16.52;;;-2.20;99.90;;;;;;4899185;29;20049;-80
2023/02/08 02:05:26;;;;;;;27.23;16.58;;;-2.20;99.90;;;;;;4882855;29;20487;-80
2023/02/08 02:07:53;;;;;;;34.03;17.52;;;-2.30;99.90;;;;;;4882336;29;20053;-81
2023/02/08 02:10:19;;;;;;;26.73;15.88;;;-2.20;99.90;;;;;;4898246;29;20044;-81
2023/02/08 02:12:46;;;;;;;26.17;15.38;;;-2.20;99.90;;;;;;4883674;29;20048;-79
2023/02/08 02:17:58;;;;;;;28.40;16.35;;;-2.30;99.90;;;;;;4898298;29;20174;-78
2023/02/08 02:20:25;;;;;;;24.38;15.25;;;-2.30;99.90;;;;;;4883257;29;20051;-78
2023/02/08 02:22:52;;;;;;;33.30;16.20;;;-2.30;99.90;;;;;;4898128;29;20487;-78
2023/02/08 02:25:21;;;;;;;30.95;17.58;;;-2.40;99.90;;;;;;4883935;29;20040;-81
2023/02/08 02:27:47;;;;;;;25.88;14.70;;;-2.40;99.90;;;;;;4882720;29;20176;-79
2023/02/08 02:30:16;;;;;;;24.33;15.35;;;-2.50;99.90;;;;;;4897740;29;20436;-78
2023/02/08 02:32:43;;;;;;;29.95;16.13;;;-2.50;99.90;;;;;;4897622;29;20041;-78
2023/02/08 02:37:56;;;;;;;25.42;13.88;;;-2.40;99.90;;;;;;4883155;29;20375;-81
2023/02/08 02:40:23;;;;;;;23.83;13.90;;;-2.40;99.90;;;;;;4882988;29;20456;-81
2023/02/08 02:48:40;;;;;;;23.83;12.27;;;-2.60;99.90;;;;;;4896677;29;20120;-80
2023/02/08 02:51:06;;;;;;;21.48;13.02;;;-2.60;99.90;;;;;;4882909;29;20045;-80
2023/02/08 02:53:33;;;;;;;26.60;13.95;;;-2.60;99.90;;;;;;4883176;29;20048;-82
2023/02/08 02:56:01;;;;;;;20.48;11.57;;;-2.70;99.90;;;;;;4881500;29;20045;-82
2023/02/08 02:58:27;;;;;;;20.10;10.75;;;-2.80;99.90;;;;;;4881826;29;20064;-79
2023/02/08 03:00:54;;;;;;;19.27;10.38;;;-2.80;99.90;;;;;;4881931;29;20421;-80
2023/02/08 03:03:21;;;;;;;14.70;8.63;;;-2.80;99.90;;;;;;4897667;29;20147;-82
2023/02/08 03:08:33;;;;;;;20.42;9.80;;;-2.80;99.90;;;;;;4881808;29;20067;-80
2023/02/08 03:10:59;;;;;;;17.00;10.50;;;-2.80;99.90;;;;;;4881646;29;20112;-81
2023/02/08 03:13:26;;;;;;;21.75;11.23;;;-2.80;99.90;;;;;;4882514;29;20059;-80
2023/02/08 03:18:22;;;;;;;;;;;-2.80;99.90;;;;;;4882507;29;20077;-82
2023/02/08 03:20:49;;;;;;;21.70;11.38;;;-2.80;99.90;;;;;;4880686;29;19923;-79
2023/02/08 03:23:16;;;;;;;20.90;12.02;;;-2.90;99.90;;;;;;4897035;29;20071;-82
2023/02/08 03:28:28;;;;;;;24.02;12.85;;;-2.90;99.90;;;;;;4896091;29;20411;-80
2023/02/08 03:30:55;;;;;;;26.98;12.40;;;-3.00;99.90;;;;;;4896884;29;20059;-81
2023/02/08 03:33:22;;;;;;;22.90;11.95;;;-3.00;99.90;;;;;;4882290;29;20067;-80
2023/02/08 03:35:50;;;;;;;20.00;12.77;;;-2.90;99.90;;;;;;4896359;29;20060;-81
2023/02/08 03:38:17;;;;;;;20.00;11.43;;;-2.90;99.90;;;;;;4896640;29;20049;-80
2023/02/08 03:40:43;;;;;;;23.55;11.05;;;-2.90;99.90;;;;;;4880834;29;20488;-80
2023/02/08 03:43:10;;;;;;;27.05;13.10;;;-2.90;99.90;;;;;;4896899;29;20056;-79
2023/02/08 03:45:38;;;;;;;20.85;12.82;;;-2.90;99.90;;;;;;4896645;29;20440;-81
2023/02/08 03:48:05;;;;;;;22.58;12.80;;;-2.90;99.90;;;;;;4881188;29;20041;-79
2023/02/08 03:50:31;;;;;;;18.50;11.07;;;-3.00;99.90;;;;;;4882102;29;20374;-80
2023/02/08 03:52:58;;;;;;;21.08;11.40;;;-3.00;99.90;;;;;;4881787;29;20049;-79
2023/02/08 03:55:24;;;;;;;23.38;11.65;;;-3.00;99.90;;;;;;4895707;29;20529;-80
2023/02/08 03:57:51;;;;;;;21.48;12.23;;;-3.00;99.90;;;;;;4896400;29;20049;-79
2023/02/08 04:00:18;;;;;;;23.88;12.38;;;-3.10;99.90;;;;;;4896132;29;20540;-81
2023/02/08 04:02:44;;;;;;;28.70;12.60;;;-3.10;99.90;;;;;;4880947;29;20150;-79
2023/02/08 04:07:57;;;;;;;21.83;12.82;;;-3.00;99.90;;;;;;4895545;29;20104;-81
2023/02/08 04:10:24;;;;;;;24.45;11.38;;;-3.00;99.90;;;;;;4896163;29;20357;-81
2023/02/08 04:12:51;;;;;;;20.67;11.27;;;-3.10;99.90;;;;;;4896266;29;20543;-83
2023/02/08 04:15:20;;;;;;;22.20;11.85;;;-3.20;99.90;;;;;;4879718;29;20037;-80
2023/02/08 04:17:47;;;;;;;;;;;-3.20;99.90;;;;;;4881118;29;20147;-79
2023/02/08 04:20:14;;;;;;;20.55;10.35;;;-3.20;99.90;;;;;;4881297;29;19923;-80
2023/02/08 04:22:40;;;;;;;20.05;10.30;;;-3.30;99.90;;;;;;4880518;29;20136;-79
2023/02/08 04:25:07;;;;;;;18.30;11.52;;;-3.30;99.90;;;;;;4881353;29;20110;-81
2023/02/08 04:27:34;;;;;;;19.95;10.85;;;-3.20;99.90;;;;;;4880480;29;20538;-80
2023/02/08 04:30:00;;;;;;;21.55;11.50;;;-3.20;99.90;;;;;;4880053;29;20112;-80
2023/02/08 04:32:27;;;;;;;18.60;10.45;;;-3.30;99.90;;;;;;4881205;29;20116;-81
2023/02/08 04:34:55;;;;;;;18.75;11.23;;;-3.30;99.90;;;;;;4880436;29;20088;-79
2023/02/08 04:37:21;;;;;;;19.20;11.57;;;-3.30;99.90;;;;;;4881614;29;20055;-80
2023/02/08 04:39:48;;;;;;;20.77;10.75;;;-3.30;99.90;;;;;;4880081;29;20349;-80
2023/02/08 04:42:15;;;;;;;20.05;11.13;;;-3.30;99.90;;;;;;4879394;29;20045;-81
2023/02/08 04:47:27;;;;;;;23.00;11.00;;;-3.30;99.90;;;;;;4894896;29;20057;-82
2023/02/08 04:49:53;;;;;;;19.73;10.18;;;-3.40;99.90;;;;;;4879897;29;20045;-82
2023/02/08 04:52:20;;;;;;;22.48;10.05;;;-3.40;99.90;;;;;;4880051;29;20091;-82
2023/02/08 04:57:16;;;;;;;16.77;11.18;;;-3.50;99.90;;;;;;4881191;29;20052;-83
2023/02/08 04:59:43;;;;;;;15.73;9.82;;;-3.50;99.90;;;;;;4895316;29;20092;-80
2023/02/08 05:02:10;;;;;;;15.23;9.23;;;-3.50;99.90;;;;;;4894762;29;20048;-82
2023/02/08 05:04:38;;;;;;;15.75;9.93;;;-3.50;99.90;;;;;;4895735;29;20052;-80
2023/02/08 05:07:05;;;;;;;20.83;10.67;;;-3.50;99.90;;;;;;4895599;29;20060;-81
2023/02/08 05:09:32;;;;;;;20.65;11.30;;;-3.50;99.90;;;;;;4895172;29;20053;-82
2023/02/08 05:11:58;;;;;;;18.50;10.32;;;-3.50;99.90;;;;;;4895399;29;20131;-81
2023/02/08 05:14:25;;;;;;;23.30;9.38;;;-3.50;99.90;;;;;;4894623;29;20044;-79
2023/02/08 05:16:51;;;;;;;19.50;9.38;;;-3.50;99.90;;;;;;4895188;29;20045;-80
2023/02/08 05:19:18;;;;;;;12.55;8.43;;;-3.50;99.90;;;;;;4895173;29;20380;-83
2023/02/08 05:21:45;;;;;;;20.25;8.68;;;-3.50;99.90;;;;;;4894570;29;20048;-84
2023/02/08 05:24:11;;;;;;;17.58;8.32;;;-3.60;99.90;;;;;;4895444;29;20060;-81
2023/02/08 05:29:23;;;;;;;21.58;10.13;;;-3.70;99.90;;;;;;4879787;29;20068;-80
2023/02/08 05:31:50;;;;;;;18.25;8.60;;;-3.70;99.90;;;;;;4895127;29;20056;-80
2023/02/08 05:34:17;;;;;;;17.70;7.95;;;-3.70;99.90;;;;;;4879591;29;20045;-81
2023/02/08 05:36:44;;;;;;;15.63;9.45;;;-3.70;99.90;;;;;;4880627;29;20049;-83
2023/02/08 05:39:10;;;;;;;14.75;7.97;;;-3.70;99.90;;;;;;4880479;29;20050;-80
2023/02/08 05:41:37;;;;;;;14.15;8.35;;;-3.60;99.90;;;;;;4879756;29;20045;-81
2023/02/08 05:44:03;;;;;;;14.25;8.55;;;-3.70;99.90;;;;;;4895360;29;20045;-81
2023/02/08 05:46:31;;;;;;;17.92;10.77;;;-3.70;99.90;;;;;;4895224;29;20052;-80
2023/02/08 05:48:58;;;;;;;17.17;8.10;;;-3.60;99.90;;;;;;4894338;29;20072;-82
2023/02/08 05:51:24;;;;;;;17.20;9.02;;;-3.70;99.90;;;;;;4880873;29;20037;-82
2023/02/08 05:53:51;;;;;;;19.55;9.70;;;-3.70;99.90;;;;;;4880056;29;20041;-82
2023/02/08 05:56:18;;;;;;;18.73;8.80;;;-3.80;99.90;;;;;;4880608;29;20073;-81
2023/02/08 05:58:44;;;;;;;15.30;9.23;;;-3.80;99.90;;;;;;4894958;29;20059;-83
2023/02/08 06:01:11;;;;;;;16.60;8.90;;;-3.80;99.90;;;;;;4894704;29;20049;-81
2023/02/08 06:03:38;;;;;;;18.13;9.30;;;-3.90;99.90;;;;;;4897834;29;20108;-80
2023/02/08 06:06:06;;;;;;;14.90;9.07;;;-3.90;99.90;;;;;;4898625;29;20057;-82
2023/02/08 06:08:32;;;;;;;14.80;8.68;;;-3.90;99.90;;;;;;4882994;29;20045;-82
2023/02/08 06:10:59;;;;;;;15.88;8.85;;;-3.90;99.90;;;;;;4883765;29;20041;-83
2023/02/08 06:13:28;;;;;;;14.05;8.45;;;-3.90;99.90;;;;;;4884322;29;20041;-79
2023/02/08 06:15:54;;;;;;;16.63;10.88;;;-3.90;99.90;;;;;;4897606;29;20124;-84
2023/02/08 06:18:21;;;;;;;12.63;8.30;;;-3.90;99.90;;;;;;4883132;29;20053;-81
2023/02/08 06:20:48;;;;;;;15.90;7.28;;;-4.00;99.90;;;;;;4897342;29;20064;-82
2023/02/08 06:23:14;;;;;;;14.27;7.80;;;-3.90;99.90;;;;;;4883396;29;20041;-81
2023/02/08 06:28:12;;;;;;;14.20;7.22;;;-3.90;99.90;;;;;;4882393;29;20055;-80
2023/02/08 06:30:38;;;;;;;15.02;7.97;;;-3.90;99.90;;;;;;4898350;29;20045;-80
2023/02/08 06:33:05;;;;;;;14.93;7.97;;;-3.90;99.90;;;;;;4883351;29;20055;-79
2023/02/08 06:35:32;;;;;;;20.10;8.45;;;-3.90;99.90;;;;;;4897138;29;20053;-80
2023/02/08 06:37:59;;;;;;;15.02;8.50;;;-3.90;99.90;;;;;;4898196;29;20041;-79
2023/02/08 06:40:26;;;;;;;14.27;8.88;;;-3.80;99.90;;;;;;4883236;29;20361;-79
2023/02/08 06:42:52;;;;;;;13.57;7.43;;;-3.80;99.90;;;;;;4882978;29;20059;-80
2023/02/08 06:45:20;;;;;;;13.70;6.82;;;-3.90;99.90;;;;;;4883401;29;20413;-80
2023/02/08 06:47:47;;;;;;;15.93;8.20;;;-3.90;99.90;;;;;;4896851;29;20045;-80
2023/02/08 06:50:14;;;;;;;14.13;7.65;;;-4.00;99.90;;;;;;4883056;29;20045;-81
2023/02/08 06:52:40;;;;;;;11.75;7.57;;;-4.00;99.90;;;;;;4882997;29;20510;-80
2023/02/08 06:55:08;;;;;;;18.73;8.93;;;-4.00;99.90;;;;;;4896708;29;20045;-80
2023/02/08 06:57:35;;;;;;;19.17;8.95;;;-4.10;99.90;;;;;;4883195;29;20056;-80
2023/02/08 07:00:01;;;;;;;24.55;10.18;;;-4.10;99.90;;;;;;4881824;29;20101;-80
2023/02/08 07:02:28;;;;;;;15.27;9.52;;;-4.00;99.90;;;;;;4896997;29;20045;-80
2023/02/08 07:07:42;;;;;;;16.55;8.35;;;-3.90;99.90;;;;;;4882029;29;20132;-80
2023/02/08 07:10:08;;;;;;;15.70;8.32;;;-4.00;99.90;;;;;;4897339;29;20128;-80
2023/02/08 07:12:35;;;;;;;13.82;8.48;;;-4.10;99.90;;;;;;4882675;29;20053;-81
2023/02/08 07:17:49;;;;;;;17.63;10.43;;;-4.00;99.90;;;;;;4896989;29;20073;-80
2023/02/08 07:20:16;;;;;;;18.20;9.30;;;-3.90;99.90;;;;;;4881548;29;20376;-80
2023/02/08 07:22:42;;;;;;;13.27;7.00;;;-3.80;99.90;;;;;;4896657;29;20045;-80
2023/02/08 07:25:10;;;;;;;13.98;7.53;;;-3.80;99.90;;;;;;4882452;29;20037;-79
2023/02/08 07:27:37;;;;;;;15.50;7.97;;;-3.80;99.90;;;;;;4896153;29;20060;-80
2023/02/08 07:30:03;;;;;;;16.35;7.28;;;-3.90;99.90;;;;;;4882782;29;20369;-80
2023/02/08 07:32:30;;;;;;;18.08;8.38;;;-4.00;99.90;;;;;;4896821;29;20139;-79
2023/02/08 07:35:02;;;;;;;17.90;9.05;;;-4.00;99.90;;;;;;4896046;29;20048;-79
2023/02/08 07:37:29;;;;;;;15.60;9.65;;;-4.00;99.90;;;;;;4884438;29;20041;-79
2023/02/08 07:39:55;;;;;;;17.35;9.57;;;-4.10;99.90;;;;;;4863579;29;20085;-78
2023/02/08 07:42:22;;;;;;;18.42;9.02;;;-4.00;99.90;;;;;;4877289;29;20469;-79
2023/02/08 07:45:03;;;;;;;12.87;8.77;;;-3.90;99.90;;;;;;4886389;29;20049;-80
2023/02/08 07:47:30;;;;;;;16.43;8.63;;;-3.80;99.90;;;;;;4875492;29;20596;-79
2023/02/08 07:49:56;;;;;;;16.60;8.68;;;-3.80;99.90;;;;;;4880914;29;20045;-80
2023/02/08 07:52:23;;;;;;;17.77;8.95;;;-3.80;99.90;;;;;;4881753;29;20071;-79
2023/02/08 07:54:51;;;;;;;21.98;9.57;;;-3.80;99.90;;;;;;4880960;29;20045;-80
2023/02/08 07:57:20;;;;;;;18.98;9.75;;;-3.70;99.90;;;;;;4880902;29;20059;-80
2023/02/08 07:59:47;;;;;;;17.77;9.35;;;-3.70;99.90;;;;;;4896232;29;20049;-80
2023/02/08 08:02:14;;;;;;;20.10;9.90;;;-3.70;99.90;;;;;;4881101;29;20059;-80
2023/02/08 08:07:26;;;;;;;17.58;10.50;;;-3.40;99.90;;;;;;4874371;29;20053;-80
2023/02/08 08:09:53;;;;;;;20.20;8.70;;;-3.40;99.90;;;;;;4863405;29;20066;-81
2023/02/08 08:12:20;;;;;;;16.20;9.23;;;-3.40;99.90;;;;;;4874275;29;20201;-80
2023/02/08 08:14:47;;;;;;;18.33;10.40;;;-3.30;99.90;;;;;;4880150;29;20056;-80
2023/02/08 08:17:14;;;;;;;18.95;10.57;;;-3.30;99.90;;;;;;4880651;29;20053;-81
2023/02/08 08:19:40;;;;;;;14.93;8.88;;;-3.30;99.90;;;;;;4881177;29;20503;-80
2023/02/08 08:22:07;;;;;;;21.27;11.52;;;-3.20;99.90;;;;;;4879719;29;20045;-80
2023/02/08 08:24:36;;;;;;;17.90;10.45;;;-3.10;99.90;;;;;;4880503;29;20045;-79
2023/02/08 08:27:02;;;;;;;18.95;12.60;;;-3.00;99.90;;;;;;4865215;29;20053;-79
2023/02/08 08:29:30;;;;;;;19.20;11.27;;;-2.90;99.90;;;;;;4894978;29;20067;-79
2023/02/08 08:31:57;;;;;;;21.65;11.32;;;-2.80;99.90;;;;;;4880373;29;20384;-80
2023/02/08 08:34:28;;;;;;;19.10;10.00;;;-2.70;99.90;;;;;;4880298;29;20495;-79
2023/02/08 08:36:55;;;;;;;18.98;10.48;;;-2.50;99.90;;;;;;4881429;29;20425;-78
2023/02/08 08:39:22;;;;;;;21.58;9.88;;;-2.50;99.90;;;;;;4881065;29;20101;-79
2023/02/08 08:41:48;;;;;;;16.20;10.38;;;-2.30;99.90;;;;;;4894912;29;20049;-79
2023/02/08 08:44:15;;;;;;;17.17;10.55;;;-2.30;99.90;;;;;;4881009;29;20385;-79
2023/02/08 08:46:42;;;;;;;20.80;11.38;;;-2.10;99.90;;;;;;4881044;29;20057;-78
2023/02/08 08:49:09;;;;;;;19.33;12.15;;;-2.00;99.90;;;;;;4880262;29;20124;-79
2023/02/08 08:51:36;;;;;;;23.10;12.43;;;-1.90;99.90;;;;;;4893270;29;20048;-80
2023/02/08 08:54:02;;;;;;;24.20;12.32;;;-1.80;99.90;;;;;;4896158;29;20042;-80
2023/02/08 08:59:16;;;;;;;18.40;10.95;;;-1.40;99.90;;;;;;4862208;29;20060;-80
2023/02/08 09:01:43;;;;;;;25.95;12.07;;;-1.30;99.90;;;;;;4891592;29;20045;-80
2023/02/08 09:04:09;;;;;;;25.08;13.10;;;-1.20;99.90;;;;;;4876693;29;20109;-78
2023/02/08 09:06:36;;;;;;;26.27;12.25;;;-1.10;99.90;;;;;;4892086;29;20105;-78
2023/02/08 09:09:03;;;;;;;24.17;13.13;;;-1.00;99.90;;;;;;4861360;29;20524;-78
2023/02/08 09:11:32;;;;;;;24.10;14.55;;;-0.80;99.90;;;;;;4867243;29;20045;-77
2023/02/08 09:13:58;;;;;;;24.40;13.98;;;-0.70;99.90;;;;;;4880296;29;20044;-78
2023/02/08 09:16:25;;;;;;;21.42;14.65;;;-0.50;99.90;;;;;;4880534;29;20464;-78
2023/02/08 09:18:52;;;;;;;23.67;13.82;;;-0.40;99.90;;;;;;4879815;29;20049;-78
2023/02/08 09:21:18;;;;;;;20.92;13.98;;;-0.30;99.90;;;;;;4880802;29;20070;-78
2023/02/08 09:23:46;;;;;;;29.33;16.02;;;-0.10;99.90;;;;;;4895290;29;20049;-78
2023/02/08 09:26:14;;;;;;;30.08;18.13;;;0.10;99.90;;;;;;4894983;29;20056;-77
2023/02/08 09:28:41;;;;;;;29.77;15.50;;;0.30;99.90;;;;;;4879595;29;20061;-78
2023/02/08 09:31:07;;;;;;;27.02;16.20;;;0.40;99.90;;;;;;4894990;29;20045;-76
2023/02/08 09:33:34;;;;;;;26.08;16.33;;;0.60;99.90;;;;;;4894521;29;20059;-76
2023/02/08 09:36:01;;;;;;;27.67;17.40;;;0.60;99.90;;;;;;4893276;29;20049;-77
2023/02/08 09:38:27;;;;;;;28.95;16.80;;;0.80;99.90;;;;;;4896913;29;20428;-77
2023/02/08 09:40:54;;;;;;;29.63;17.85;;;0.90;99.90;;;;;;4881203;29;20048;-77
2023/02/08 09:43:20;;;;;;;33.00;18.40;;;1.00;99.90;;;;;;4898366;29;20641;-77
2023/02/08 09:45:47;;;;;;;35.08;19.30;;;1.10;99.90;;;;;;4898066;29;20099;-80
2023/02/08 09:48:25;;;;;;;34.90;18.60;;;1.30;99.90;;;;;;4882949;29;20503;-79
2023/02/08 09:50:51;;;;;;;39.05;21.15;;;1.40;99.90;;;;;;4883555;29;20056;-77
2023/02/08 09:53:18;;;;;;;34.38;22.10;;;1.50;99.90;;;;;;4883528;29;20045;-76
2023/02/08 09:55:45;;;;;;;38.90;23.42;;;1.60;99.90;;;;;;4882163;29;20364;-76
2023/02/08 09:58:11;;;;;;;38.65;23.85;;;1.80;99.90;;;;;;4883294;29;20069;-77
2023/02/08 10:00:38;;;;;;;41.42;25.75;;;1.90;99.90;;;;;;4881577;29;20041;-78
2023/02/08 10:03:05;;;;;;;39.33;24.25;;;2.10;99.90;;;;;;4883239;29;20037;-77
2023/02/08 10:05:31;;;;;;;38.83;24.35;;;2.40;99.90;;;;;;4883023;29;20128;-77
2023/02/08 10:07:59;;;;;;;41.53;24.00;;;2.60;99.90;;;;;;4882710;29;20076;-78
2023/02/08 10:10:25;;;;;;;39.25;23.08;;;2.90;99.90;;;;;;4883099;29;20063;-77
2023/02/08 10:12:52;;;;;;;33.75;22.27;;;3.20;99.90;;;;;;4883222;29;20084;-78
2023/02/08 10:15:18;;;;;;;31.17;22.05;;;3.40;99.90;;;;;;4896813;29;20041;-77
2023/02/08 10:17:45;;;;;;;35.08;23.23;;;3.70;99.90;;;;;;4882843;29;20159;-77
2023/02/08 10:20:12;;;;;;;39.22;23.05;;;4.00;99.90;;;;;;4882924;29;20043;-77
2023/02/08 10:22:38;;;;;;;30.25;21.60;;;4.20;99.90;;;;;;4896883;29;20067;-78
2023/02/08 10:25:05;;;;;;;28.55;19.88;;;4.50;99.90;;;;;;4883671;29;20037;-77
2023/02/08 10:27:32;;;;;;;34.17;21.80;;;4.60;99.90;;;;;;4896750;29;20143;-78
2023/02/08 10:29:58;;;;;;;32.90;20.70;;;4.80;99.90;;;;;;4897208;29;20513;-79
2023/02/08 10:32:25;;;;;;;29.95;21.10;;;5.10;99.90;;;;;;4883249;29;20453;-79
2023/02/08 10:34:52;;;;;;;34.72;22.15;;;5.40;99.90;;;;;;4881998;29;20417;-80
2023/02/08 10:37:18;;;;;;;32.88;22.63;;;5.60;99.90;;;;;;4883266;29;20041;-80
2023/02/08 10:39:45;;;;;;;35.03;22.55;;;5.80;99.90;;;;;;4882637;29;20503;-80
2023/02/08 10:42:11;;;;;;;32.55;20.70;;;6.10;99.90;;;;;;4881990;29;20052;-83
2023/02/08 10:44:38;;;;;;;28.60;19.60;;;6.30;99.90;;;;;;4889452;29;20045;-78
2023/02/08 10:47:05;;;;;;;31.27;20.42;;;6.60;99.90;;;;;;4879728;29;20040;-79
2023/02/08 10:49:31;;;;;;;28.58;19.67;;;6.90;99.90;;;;;;4883756;29;20379;-79
2023/02/08 10:51:58;;;;;;;32.95;20.42;;;7.30;99.90;;;;;;4881843;29;20057;-83
2023/02/08 10:54:25;;;;;;;27.85;19.60;;;7.50;99.90;;;;;;4879473;29;20384;-79
2023/02/08 10:56:51;;;;;;;29.63;19.55;;;7.80;99.90;;;;;;4888781;29;20049;-77
2023/02/08 10:59:19;;;;;;;31.92;21.13;;;8.00;99.90;;;;;;4890289;29;20037;-79
2023/02/08 11:01:45;;;;;;;29.67;21.13;;;8.20;99.90;;;;;;4882955;29;20069;-79
2023/02/08 11:04:12;;;;;;;27.70;20.35;;;8.50;99.90;;;;;;4889181;29;20058;-78
2023/02/08 11:06:38;;;;;;;28.80;20.13;;;8.60;99.90;;;;;;4887024;29;20064;-78
2023/02/08 11:09:05;;;;;;;27.45;19.65;;;8.80;99.90;;;;;;4882467;29;20048;-78
2023/02/08 11:11:32;;;;;;;25.23;18.50;;;9.00;99.90;;;;;;4889211;29;20486;-77
2023/02/08 11:13:58;;;;;;;26.50;18.55;;;9.20;99.90;;;;;;4883343;29;20037;-80
2023/02/08 11:16:25;;;;;;;23.60;16.33;;;9.40;99.90;;;;;;4878681;29;20051;-79
2023/02/08 11:18:52;;;;;;;22.75;17.55;;;9.40;99.90;;;;;;4878408;29;20064;-80
2023/02/08 11:21:18;;;;;;;24.08;17.90;;;9.60;99.90;;;;;;4880601;29;20425;-78
2023/02/08 11:23:47;;;;;;;26.25;20.02;;;9.70;99.90;;;;;;4893364;29;20041;-76
2023/02/08 11:26:14;;;;;;;26.48;19.65;;;9.80;99.90;;;;;;4899916;29;20071;-78
2023/02/08 11:28:41;;;;;;;24.40;17.65;;;9.80;99.90;;;;;;4903875;29;20136;-78
2023/02/08 11:31:08;;;;;;;24.10;17.75;;;10.00;99.90;;;;;;4881670;29;20472;-78
2023/02/08 11:33:35;;;;;;;23.27;18.25;;;10.00;99.90;;;;;;4882116;29;20090;-78
2023/02/08 11:36:02;;;;;;;21.92;17.10;;;10.20;99.90;;;;;;4910081;29;20067;-78
2023/02/08 11:38:28;;;;;;;22.77;17.63;;;10.20;99.90;;;;;;4900102;29;20059;-79
2023/02/08 11:40:55;;;;;;;23.58;18.20;;;10.30;99.90;;;;;;4890752;29;20068;-82
2023/02/08 11:43:22;;;;;;;22.23;18.80;;;10.40;99.90;;;;;;4881692;29;20417;-80
2023/02/08 11:45:48;;;;;;;25.73;19.35;;;10.50;99.90;;;;;;4896705;29;20049;-79
2023/02/08 11:48:15;;;;;;;23.95;19.25;;;10.60;99.90;;;;;;4881028;29;20136;-79
2023/02/08 11:50:42;;;;;;;22.52;17.02;;;10.80;99.90;;;;;;4882473;29;20055;-80
2023/02/08 11:53:08;;;;;;;21.20;17.58;;;11.10;99.90;;;;;;4881606;29;20049;-80
2023/02/08 11:55:35;;;;;;;22.60;17.85;;;11.30;97.00;;;;;;4877651;29;20045;-79
2023/02/08 11:58:02;;;;;;;22.75;18.45;;;11.30;96.80;;;;;;4881489;29;20041;-80
2023/02/08 12:00:28;;;;;;;23.40;18.73;;;11.40;97.50;;;;;;4879357;29;20464;-81
2023/02/08 12:02:55;;;;;;;24.10;18.48;;;11.50;95.40;;;;;;4879791;29;20473;-77
2023/02/08 12:05:23;;;;;;;23.40;17.92;;;11.60;95.00;;;;;;4881822;29;20133;-77
2023/02/08 12:07:49;;;;;;;19.20;15.48;;;11.60;94.20;;;;;;4879862;29;20049;-77
2023/02/08 12:10:16;;;;;;;18.98;15.18;;;11.20;87.50;;;;;;4881606;29;20472;-76
2023/02/08 12:12:43;;;;;;;19.70;15.88;;;10.30;90.40;;;;;;4881564;29;20041;-77
2023/02/08 12:15:10;;;;;;;24.38;18.05;;;9.60;92.50;;;;;;4880861;29;20051;-76
2023/02/08 12:17:36;;;;;;;21.88;17.05;;;9.00;96.60;;;;;;4881395;29;20057;-76
2023/02/08 12:20:03;;;;;;;22.88;16.52;;;8.40;99.10;;;;;;4864330;29;20049;-76
2023/02/08 12:22:30;;;;;;;22.33;16.10;;;8.20;99.90;;;;;;4880428;29;20048;-76
2023/02/08 12:24:58;;;;;;;25.63;16.98;;;7.90;99.90;;;;;;4881018;29;20044;-76
2023/02/08 12:27:26;;;;;;;24.42;16.23;;;7.70;99.90;;;;;;4885181;29;20046;-76
2023/02/08 12:29:53;;;;;;;24.15;16.60;;;7.50;99.90;;;;;;4862556;29;20045;-77
2023/02/08 12:32:19;;;;;;;25.55;16.85;;;7.30;99.90;;;;;;4877519;29;20052;-76
2023/02/08 12:34:47;;;;;;;25.02;16.50;;;7.20;99.90;;;;;;4861564;29;20044;-76
2023/02/08 12:42:44;;;;;;;21.85;14.27;;;7.20;99.90;;;;;;4874964;29;20411;-77
2023/02/08 12:45:12;;;;;;;24.20;15.93;;;7.10;99.90;;;;;;4881280;29;20472;-77
2023/02/08 12:47:42;;;;;;;26.23;16.10;;;7.00;99.90;;;;;;4879918;29;20436;-76
2023/02/08 12:50:25;;;;;;;21.30;16.88;;;7.00;99.90;;;;;;4880415;29;20049;-76
2023/02/08 12:52:53;;;;;;;23.77;17.20;;;7.00;99.90;;;;;;4880034;29;20357;-77
2023/02/08 12:58:07;;;;;;;23.05;16.73;;;6.90;99.90;;;;;;4880914;29;20064;-77
2023/02/08 13:00:34;;;;;;;25.13;15.60;;;7.00;99.90;;;;;;4880211;29;20048;-77
2023/02/08 13:03:00;;;;;;;30.00;18.55;;;7.20;99.90;;;;;;4880620;29;20132;-76
2023/02/08 13:05:28;;;;;;;30.77;20.27;;;7.20;99.90;;;;;;4889686;29;20049;-77
2023/02/08 13:07:55;;;;;;;28.13;20.35;;;7.20;99.90;;;;;;4894635;29;20076;-77
2023/02/08 13:10:25;;;;;;;26.92;16.95;;;7.20;99.90;;;;;;4894871;29;20532;-77
2023/02/08 13:12:54;;;;;;;28.35;19.52;;;7.20;99.90;;;;;;4863753;29;20433;-77
2023/02/08 13:15:23;;;;;;;31.73;19.20;;;7.20;99.90;;;;;;4865754;29;20094;-77
2023/02/08 13:17:56;;;;;;;29.00;19.55;;;7.20;99.90;;;;;;4865824;29;20113;-77
2023/02/08 13:20:23;;;;;;;25.45;19.08;;;7.30;99.90;;;;;;4885341;29;20049;-78
2023/02/08 13:22:49;;;;;;;26.42;16.65;;;7.40;99.90;;;;;;4898567;29;20033;-77
2023/02/08 13:25:18;;;;;;;27.58;16.73;;;7.40;99.90;;;;;;4883439;29;20049;-77
2023/02/08 13:27:45;;;;;;;24.93;17.47;;;7.40;99.90;;;;;;4891342;29;20051;-79
2023/02/08 13:30:12;;;;;;;27.00;17.65;;;7.40;99.90;;;;;;4884241;29;20056;-76
2023/02/08 13:32:38;;;;;;;22.88;15.93;;;7.30;99.90;;;;;;4904663;29;20055;-76
2023/02/08 13:35:09;;;;;;;23.98;16.88;;;7.10;99.90;;;;;;4883774;29;20379;-76